sensor_id;sensor_type;location;lat;lon;timestamp;pressure;altitude;pressure_sealevel;temperature
79053;BMP280;68451;49.510;6.026;2023-11-19T00:00:08;97840.00;;;10.86
79053;BMP280;68451;49.510;6.026;2023-11-19T00:02:40;97838.06;;;10.82
79053;BMP280;68451;49.510;6.026;2023-11-19T00:05:08;97779.44;;;10.43
79053;BMP280;68451;49.510;6.026;2023-11-19T00:07:39;97812.38;;;10.67
79053;BMP280;68451;49.510;6.026;2023-11-19T00:10:10;97815.91;;;10.72
79053;BMP280;68451;49.510;6.026;2023-11-19T00:12:40;97849.31;;;10.94
79053;BMP280;68451;49.510;6.026;2023-11-19T00:15:07;97811.50;;;10.73
79053;BMP280;68451;49.510;6.026;2023-11-19T00:17:42;97847.75;;;10.93
79053;BMP280;68451;49.510;6.026;2023-11-19T00:20:16;97824.00;;;10.83
79053;BMP280;68451;49.510;6.026;2023-11-19T00:22:43;97786.94;;;10.62
79053;BMP280;68451;49.510;6.026;2023-11-19T00:25:13;97706.94;;;10.21
79053;BMP280;68451;49.510;6.026;2023-11-19T00:27:40;97817.41;;;10.92
79053;BMP280;68451;49.510;6.026;2023-11-19T00:30:07;97791.06;;;10.82
79053;BMP280;68451;49.510;6.026;2023-11-19T00:32:35;97692.63;;;10.24
79053;BMP280;68451;49.510;6.026;2023-11-19T00:35:02;97758.34;;;10.67
79053;BMP280;68451;49.510;6.026;2023-11-19T00:37:29;97802.31;;;11.05
79053;BMP280;68451;49.510;6.026;2023-11-19T00:39:56;97778.22;;;10.92
79053;BMP280;68451;49.510;6.026;2023-11-19T00:42:25;97798.78;;;11.00
79053;BMP280;68451;49.510;6.026;2023-11-19T00:44:52;97785.16;;;10.98
79053;BMP280;68451;49.510;6.026;2023-11-19T00:47:19;97780.72;;;10.98
79053;BMP280;68451;49.510;6.026;2023-11-19T00:49:48;97779.81;;;10.93
79053;BMP280;68451;49.510;6.026;2023-11-19T00:52:16;97767.31;;;10.95
79053;BMP280;68451;49.510;6.026;2023-11-19T00:54:43;97681.50;;;10.40
79053;BMP280;68451;49.510;6.026;2023-11-19T00:57:10;97753.72;;;10.93
79053;BMP280;68451;49.510;6.026;2023-11-19T00:59:37;97787.66;;;11.04
79053;BMP280;68451;49.510;6.026;2023-11-19T01:02:04;97768.13;;;10.95
79053;BMP280;68451;49.510;6.026;2023-11-19T01:04:34;97513.28;;;9.38
79053;BMP280;68451;49.510;6.026;2023-11-19T01:07:02;97734.28;;;10.77
79053;BMP280;68451;49.510;6.026;2023-11-19T01:09:41;97806.13;;;11.26
79053;BMP280;68451;49.510;6.026;2023-11-19T01:12:08;97807.16;;;11.25
79053;BMP280;68451;49.510;6.026;2023-11-19T01:14:38;97777.53;;;11.08
79053;BMP280;68451;49.510;6.026;2023-11-19T01:17:05;97558.78;;;9.77
79053;BMP280;68451;49.510;6.026;2023-11-19T01:19:33;97713.28;;;10.84
79053;BMP280;68451;49.510;6.026;2023-11-19T01:22:00;97772.41;;;11.25
79053;BMP280;68451;49.510;6.026;2023-11-19T01:24:27;97771.63;;;11.24
79053;BMP280;68451;49.510;6.026;2023-11-19T01:26:57;97731.66;;;11.00
79053;BMP280;68451;49.510;6.026;2023-11-19T01:29:26;97771.25;;;11.32
79053;BMP280;68451;49.510;6.026;2023-11-19T01:31:53;97803.97;;;11.46
79053;BMP280;68451;49.510;6.026;2023-11-19T01:34:20;97769.13;;;11.29
79053;BMP280;68451;49.510;6.026;2023-11-19T01:36:47;97761.28;;;11.29
79053;BMP280;68451;49.510;6.026;2023-11-19T01:39:15;97786.69;;;11.45
79053;BMP280;68451;49.510;6.026;2023-11-19T01:41:43;97780.53;;;11.51
79053;BMP280;68451;49.510;6.026;2023-11-19T01:44:10;97683.38;;;11.03
79053;BMP280;68451;49.510;6.026;2023-11-19T01:46:40;97778.25;;;11.55
79053;BMP280;68451;49.510;6.026;2023-11-19T01:49:09;97720.69;;;11.27
79053;BMP280;68451;49.510;6.026;2023-11-19T01:51:36;97771.06;;;11.62
79053;BMP280;68451;49.510;6.026;2023-11-19T01:54:03;97718.41;;;11.30
79053;BMP280;68451;49.510;6.026;2023-11-19T01:56:30;97731.22;;;11.43
79053;BMP280;68451;49.510;6.026;2023-11-19T01:58:58;97773.97;;;11.65
79053;BMP280;68451;49.510;6.026;2023-11-19T02:01:26;97728.53;;;11.38
79053;BMP280;68451;49.510;6.026;2023-11-19T02:03:53;97780.13;;;11.71
79053;BMP280;68451;49.510;6.026;2023-11-19T02:06:20;97771.06;;;11.74
79053;BMP280;68451;49.510;6.026;2023-11-19T02:08:48;97734.75;;;11.65
79053;BMP280;68451;49.510;6.026;2023-11-19T02:11:15;97761.72;;;11.78
79053;BMP280;68451;49.510;6.026;2023-11-19T02:13:42;97603.84;;;10.82
79053;BMP280;68451;49.510;6.026;2023-11-19T02:16:10;97748.19;;;11.69
79053;BMP280;68451;49.510;6.026;2023-11-19T02:18:38;97738.06;;;11.61
79053;BMP280;68451;49.510;6.026;2023-11-19T02:21:05;97656.06;;;11.22
79053;BMP280;68451;49.510;6.026;2023-11-19T02:23:32;97635.13;;;11.05
79053;BMP280;68451;49.510;6.026;2023-11-19T02:28:37;97763.88;;;11.97
79053;BMP280;68451;49.510;6.026;2023-11-19T02:31:04;97718.50;;;11.75
79053;BMP280;68451;49.510;6.026;2023-11-19T02:33:31;97714.88;;;11.76
79053;BMP280;68451;49.510;6.026;2023-11-19T02:35:58;97703.97;;;11.67
79053;BMP280;68451;49.510;6.026;2023-11-19T02:38:25;97618.94;;;11.20
79053;BMP280;68451;49.510;6.026;2023-11-19T02:40:52;97729.66;;;11.99
79053;BMP280;68451;49.510;6.026;2023-11-19T02:43:19;97719.56;;;11.91
79053;BMP280;68451;49.510;6.026;2023-11-19T02:45:46;97700.16;;;11.87
79053;BMP280;68451;49.510;6.026;2023-11-19T02:48:13;97708.41;;;11.95
79053;BMP280;68451;49.510;6.026;2023-11-19T02:50:42;97712.28;;;11.93
79053;BMP280;68451;49.510;6.026;2023-11-19T02:53:09;97728.88;;;12.15
79053;BMP280;68451;49.510;6.026;2023-11-19T02:55:37;97724.75;;;12.19
79053;BMP280;68451;49.510;6.026;2023-11-19T02:58:06;97719.34;;;12.09
79053;BMP280;68451;49.510;6.026;2023-11-19T03:00:46;97592.88;;;11.25
79053;BMP280;68451;49.510;6.026;2023-11-19T03:03:24;97613.78;;;11.53
79053;BMP280;68451;49.510;6.026;2023-11-19T03:05:57;97681.91;;;11.92
79053;BMP280;68451;49.510;6.026;2023-11-19T03:08:24;97710.22;;;12.11
79053;BMP280;68451;49.510;6.026;2023-11-19T03:10:51;97720.56;;;12.18
79053;BMP280;68451;49.510;6.026;2023-11-19T03:13:18;97702.78;;;12.20
79053;BMP280;68451;49.510;6.026;2023-11-19T03:15:45;97646.47;;;11.84
79053;BMP280;68451;49.510;6.026;2023-11-19T03:18:12;97677.56;;;12.14
79053;BMP280;68451;49.510;6.026;2023-11-19T03:20:39;97681.38;;;12.06
79053;BMP280;68451;49.510;6.026;2023-11-19T03:23:07;97713.72;;;12.34
79053;BMP280;68451;49.510;6.026;2023-11-19T03:25:33;97708.66;;;12.27
79053;BMP280;68451;49.510;6.026;2023-11-19T03:28:01;97682.06;;;12.19
79053;BMP280;68451;49.510;6.026;2023-11-19T03:30:31;97691.81;;;12.23
79053;BMP280;68451;49.510;6.026;2023-11-19T03:33:00;97719.13;;;12.44
79053;BMP280;68451;49.510;6.026;2023-11-19T03:35:28;97606.94;;;11.81
79053;BMP280;68451;49.510;6.026;2023-11-19T03:37:55;97572.50;;;11.55
79053;BMP280;68451;49.510;6.026;2023-11-19T03:40:22;97716.03;;;12.47
79053;BMP280;68451;49.510;6.026;2023-11-19T03:42:51;97675.19;;;12.29
79053;BMP280;68451;49.510;6.026;2023-11-19T03:45:17;97697.31;;;12.38
79053;BMP280;68451;49.510;6.026;2023-11-19T03:47:44;97688.50;;;12.28
79053;BMP280;68451;49.510;6.026;2023-11-19T03:50:11;97667.81;;;12.26
79053;BMP280;68451;49.510;6.026;2023-11-19T03:52:38;97694.03;;;12.48
79053;BMP280;68451;49.510;6.026;2023-11-19T03:55:08;97718.56;;;12.59
79053;BMP280;68451;49.510;6.026;2023-11-19T03:57:35;97707.03;;;12.60
79053;BMP280;68451;49.510;6.026;2023-11-19T04:00:02;97671.91;;;12.39
79053;BMP280;68451;49.510;6.026;2023-11-19T04:02:37;97584.41;;;11.80
79053;BMP280;68451;49.510;6.026;2023-11-19T04:05:04;97688.72;;;12.43
79053;BMP280;68451;49.510;6.026;2023-11-19T04:07:32;97719.19;;;12.66
79053;BMP280;68451;49.510;6.026;2023-11-19T04:09:59;97712.28;;;12.60
79053;BMP280;68451;49.510;6.026;2023-11-19T04:12:26;97674.31;;;12.40
79053;BMP280;68451;49.510;6.026;2023-11-19T04:14:53;97697.19;;;12.67
79053;BMP280;68451;49.510;6.026;2023-11-19T04:17:22;97647.34;;;12.40
79053;BMP280;68451;49.510;6.026;2023-11-19T04:19:49;97567.84;;;11.91
79053;BMP280;68451;49.510;6.026;2023-11-19T04:22:16;97688.31;;;12.68
79053;BMP280;68451;49.510;6.026;2023-11-19T04:24:43;97698.72;;;12.63
79053;BMP280;68451;49.510;6.026;2023-11-19T04:27:13;97692.19;;;12.65
79053;BMP280;68451;49.510;6.026;2023-11-19T04:29:40;97710.28;;;12.67
79053;BMP280;68451;49.510;6.026;2023-11-19T04:32:07;97698.31;;;12.71
79053;BMP280;68451;49.510;6.026;2023-11-19T04:34:34;97645.13;;;12.32
79053;BMP280;68451;49.510;6.026;2023-11-19T04:37:01;97590.03;;;12.05
79053;BMP280;68451;49.510;6.026;2023-11-19T04:39:34;97704.56;;;12.70
79053;BMP280;68451;49.510;6.026;2023-11-19T04:42:01;97695.84;;;12.64
79053;BMP280;68451;49.510;6.026;2023-11-19T04:44:29;97590.28;;;12.03
79053;BMP280;68451;49.510;6.026;2023-11-19T04:46:56;97677.44;;;12.59
79053;BMP280;68451;49.510;6.026;2023-11-19T04:49:24;97715.97;;;12.80
79053;BMP280;68451;49.510;6.026;2023-11-19T04:51:54;97650.25;;;12.43
79053;BMP280;68451;49.510;6.026;2023-11-19T04:54:21;97558.25;;;11.80
79053;BMP280;68451;49.510;6.026;2023-11-19T04:56:47;97718.28;;;12.77
79053;BMP280;68451;49.510;6.026;2023-11-19T04:59:15;97593.91;;;12.02
79053;BMP280;68451;49.510;6.026;2023-11-19T05:04:17;97706.50;;;12.57
79053;BMP280;68451;49.510;6.026;2023-11-19T05:06:45;97690.13;;;12.50
79053;BMP280;68451;49.510;6.026;2023-11-19T05:09:12;97728.44;;;12.73
79053;BMP280;68451;49.510;6.026;2023-11-19T05:11:40;97720.88;;;12.77
79053;BMP280;68451;49.510;6.026;2023-11-19T05:14:10;97699.44;;;12.58
79053;BMP280;68451;49.510;6.026;2023-11-19T05:16:39;97708.63;;;12.61
79053;BMP280;68451;49.510;6.026;2023-11-19T05:19:06;97723.47;;;12.72
79053;BMP280;68451;49.510;6.026;2023-11-19T05:21:33;97734.06;;;12.82
79053;BMP280;68451;49.510;6.026;2023-11-19T05:24:01;97707.19;;;12.70
79053;BMP280;68451;49.510;6.026;2023-11-19T05:26:31;97703.47;;;12.66
79053;BMP280;68451;49.510;6.026;2023-11-19T05:28:58;97725.09;;;12.78
79053;BMP280;68451;49.510;6.026;2023-11-19T05:31:24;97735.66;;;12.83
79053;BMP280;68451;49.510;6.026;2023-11-19T05:33:51;97730.59;;;12.76
79053;BMP280;68451;49.510;6.026;2023-11-19T05:36:18;97689.13;;;12.51
79053;BMP280;68451;49.510;6.026;2023-11-19T05:38:45;97701.66;;;12.49
79053;BMP280;68451;49.510;6.026;2023-11-19T05:41:12;97734.88;;;12.66
79053;BMP280;68451;49.510;6.026;2023-11-19T05:43:39;97729.41;;;12.67
79053;BMP280;68451;49.510;6.026;2023-11-19T05:46:07;97749.00;;;12.65
79053;BMP280;68451;49.510;6.026;2023-11-19T05:48:38;97730.00;;;12.52
79053;BMP280;68451;49.510;6.026;2023-11-19T05:51:05;97673.91;;;12.15
79053;BMP280;68451;49.510;6.026;2023-11-19T05:53:32;97741.25;;;12.53
79053;BMP280;68451;49.510;6.026;2023-11-19T05:55:59;97718.09;;;12.45
79053;BMP280;68451;49.510;6.026;2023-11-19T05:58:30;97755.91;;;12.71
79053;BMP280;68451;49.510;6.026;2023-11-19T06:00:57;97757.50;;;12.72
79053;BMP280;68451;49.510;6.026;2023-11-19T06:03:24;97754.72;;;12.62
79053;BMP280;68451;49.510;6.026;2023-11-19T06:05:52;97755.75;;;12.77
79053;BMP280;68451;49.510;6.026;2023-11-19T06:08:19;97752.00;;;12.73
79053;BMP280;68451;49.510;6.026;2023-11-19T06:10:47;97770.75;;;12.82
79053;BMP280;68451;49.510;6.026;2023-11-19T06:13:16;97747.03;;;12.72
79053;BMP280;68451;49.510;6.026;2023-11-19T06:15:43;97722.63;;;12.49
79053;BMP280;68451;49.510;6.026;2023-11-19T06:18:10;97773.84;;;12.79
79053;BMP280;68451;49.510;6.026;2023-11-19T06:20:41;97757.59;;;12.60
79053;BMP280;68451;49.510;6.026;2023-11-19T06:23:09;97769.97;;;12.65
79053;BMP280;68451;49.510;6.026;2023-11-19T06:25:36;97764.66;;;12.60
79053;BMP280;68451;49.510;6.026;2023-11-19T06:28:03;97736.66;;;12.43
79053;BMP280;68451;49.510;6.026;2023-11-19T06:30:31;97764.09;;;12.57
79053;BMP280;68451;49.510;6.026;2023-11-19T06:32:59;97739.09;;;12.33
79053;BMP280;68451;49.510;6.026;2023-11-19T06:35:27;97779.34;;;12.61
79053;BMP280;68451;49.510;6.026;2023-11-19T06:37:56;97647.44;;;11.78
79053;BMP280;68451;49.510;6.026;2023-11-19T06:40:23;97764.88;;;12.41
79053;BMP280;68451;49.510;6.026;2023-11-19T06:42:50;97740.00;;;12.22
79053;BMP280;68451;49.510;6.026;2023-11-19T06:45:19;97743.22;;;12.29
79053;BMP280;68451;49.510;6.026;2023-11-19T06:47:45;97749.97;;;12.25
79053;BMP280;68451;49.510;6.026;2023-11-19T06:50:12;97736.72;;;12.15
79053;BMP280;68451;49.510;6.026;2023-11-19T06:52:39;97770.59;;;12.38
79053;BMP280;68451;49.510;6.026;2023-11-19T06:55:07;97773.63;;;12.30
79053;BMP280;68451;49.510;6.026;2023-11-19T06:57:35;97649.47;;;11.48
79053;BMP280;68451;49.510;6.026;2023-11-19T07:00:02;97772.22;;;12.11
79053;BMP280;68451;49.510;6.026;2023-11-19T07:02:30;97799.88;;;12.35
79053;BMP280;68451;49.510;6.026;2023-11-19T07:04:57;97766.78;;;12.13
79053;BMP280;68451;49.510;6.026;2023-11-19T07:07:24;97797.72;;;12.32
79053;BMP280;68451;49.510;6.026;2023-11-19T07:09:51;97792.34;;;12.39
79053;BMP280;68451;49.510;6.026;2023-11-19T07:12:17;97769.41;;;12.29
79053;BMP280;68451;49.510;6.026;2023-11-19T07:14:44;97796.25;;;12.36
79053;BMP280;68451;49.510;6.026;2023-11-19T07:17:11;97783.88;;;12.32
79053;BMP280;68451;49.510;6.026;2023-11-19T07:19:38;97809.25;;;12.48
79053;BMP280;68451;49.510;6.026;2023-11-19T07:22:06;97797.84;;;12.54
79053;BMP280;68451;49.510;6.026;2023-11-19T07:24:33;97786.88;;;12.40
79053;BMP280;68451;49.510;6.026;2023-11-19T07:27:00;97795.28;;;12.59
79053;BMP280;68451;49.510;6.026;2023-11-19T07:29:29;97797.19;;;12.64
79053;BMP280;68451;49.510;6.026;2023-11-19T07:31:58;97801.88;;;12.62
79053;BMP280;68451;49.510;6.026;2023-11-19T07:34:25;97807.28;;;12.72
79053;BMP280;68451;49.510;6.026;2023-11-19T07:36:52;97792.72;;;12.64
79053;BMP280;68451;49.510;6.026;2023-11-19T07:39:19;97801.56;;;12.75
79053;BMP280;68451;49.510;6.026;2023-11-19T07:41:47;97795.81;;;12.78
79053;BMP280;68451;49.510;6.026;2023-11-19T07:44:14;97739.09;;;12.50
79053;BMP280;68451;49.510;6.026;2023-11-19T07:46:41;97787.47;;;12.97
79053;BMP280;68451;49.510;6.026;2023-11-19T07:49:09;97796.03;;;13.10
79053;BMP280;68451;49.510;6.026;2023-11-19T07:51:36;97741.72;;;12.67
79053;BMP280;68451;49.510;6.026;2023-11-19T07:54:04;97813.91;;;13.29
79053;BMP280;68451;49.510;6.026;2023-11-19T07:56:32;97825.63;;;13.43
79053;BMP280;68451;49.510;6.026;2023-11-19T07:59:04;97839.78;;;13.64
79053;BMP280;68451;49.510;6.026;2023-11-19T08:01:31;97838.56;;;13.72
79053;BMP280;68451;49.510;6.026;2023-11-19T08:03:58;97828.06;;;13.72
79053;BMP280;68451;49.510;6.026;2023-11-19T08:06:26;97839.66;;;13.76
79053;BMP280;68451;49.510;6.026;2023-11-19T08:08:53;97832.69;;;13.86
79053;BMP280;68451;49.510;6.026;2023-11-19T08:11:20;97815.50;;;13.74
79053;BMP280;68451;49.510;6.026;2023-11-19T08:13:47;97681.06;;;12.96
79053;BMP280;68451;49.510;6.026;2023-11-19T08:16:14;97869.19;;;14.10
79053;BMP280;68451;49.510;6.026;2023-11-19T08:18:45;97832.09;;;14.06
79053;BMP280;68451;49.510;6.026;2023-11-19T08:21:11;97807.50;;;14.12
79053;BMP280;68451;49.510;6.026;2023-11-19T08:23:38;97863.69;;;14.65
79053;BMP280;68451;49.510;6.026;2023-11-19T08:26:05;97854.81;;;14.71
79053;BMP280;68451;49.510;6.026;2023-11-19T08:28:33;97877.09;;;14.95
79053;BMP280;68451;49.510;6.026;2023-11-19T08:31:01;97850.34;;;15.03
79053;BMP280;68451;49.510;6.026;2023-11-19T08:33:31;97832.94;;;14.97
79053;BMP280;68451;49.510;6.026;2023-11-19T08:35:58;97860.44;;;15.16
79053;BMP280;68451;49.510;6.026;2023-11-19T08:38:25;97831.34;;;14.96
79053;BMP280;68451;49.510;6.026;2023-11-19T08:40:55;97883.81;;;15.18
79053;BMP280;68451;49.510;6.026;2023-11-19T08:43:26;97867.50;;;15.16
79053;BMP280;68451;49.510;6.026;2023-11-19T08:45:53;97856.34;;;14.99
79053;BMP280;68451;49.510;6.026;2023-11-19T08:48:20;97835.50;;;14.87
79053;BMP280;68451;49.510;6.026;2023-11-19T08:50:47;97876.00;;;14.91
79053;BMP280;68451;49.510;6.026;2023-11-19T08:53:15;97811.19;;;14.38
79053;BMP280;68451;49.510;6.026;2023-11-19T08:55:42;97874.59;;;14.52
79053;BMP280;68451;49.510;6.026;2023-11-19T08:58:09;97875.00;;;14.65
79053;BMP280;68451;49.510;6.026;2023-11-19T09:00:35;97843.34;;;14.28
79053;BMP280;68451;49.510;6.026;2023-11-19T09:03:02;97905.72;;;14.65
79053;BMP280;68451;49.510;6.026;2023-11-19T09:05:30;97893.91;;;14.62
79053;BMP280;68451;49.510;6.026;2023-11-19T09:07:58;97886.41;;;14.49
79053;BMP280;68451;49.510;6.026;2023-11-19T09:10:25;97892.28;;;14.34
79053;BMP280;68451;49.510;6.026;2023-11-19T09:12:53;97888.94;;;14.17
79053;BMP280;68451;49.510;6.026;2023-11-19T09:15:24;97860.22;;;14.06
79053;BMP280;68451;49.510;6.026;2023-11-19T09:17:50;97876.38;;;13.98
79053;BMP280;68451;49.510;6.026;2023-11-19T09:20:17;97877.59;;;13.90
79053;BMP280;68451;49.510;6.026;2023-11-19T09:22:44;97795.72;;;13.23
79053;BMP280;68451;49.510;6.026;2023-11-19T09:25:11;97893.56;;;13.83
79053;BMP280;68451;49.510;6.026;2023-11-19T09:27:44;97887.00;;;13.64
79053;BMP280;68451;49.510;6.026;2023-11-19T09:30:11;97895.25;;;13.73
79053;BMP280;68451;49.510;6.026;2023-11-19T09:32:38;97913.59;;;13.73
79053;BMP280;68451;49.510;6.026;2023-11-19T09:35:05;97851.66;;;13.12
79053;BMP280;68451;49.510;6.026;2023-11-19T09:37:33;97937.00;;;13.58
79053;BMP280;68451;49.510;6.026;2023-11-19T09:40:00;97884.53;;;13.19
79053;BMP280;68451;49.510;6.026;2023-11-19T09:42:27;97882.69;;;13.03
79053;BMP280;68451;49.510;6.026;2023-11-19T09:44:56;97923.53;;;13.16
79053;BMP280;68451;49.510;6.026;2023-11-19T09:47:25;97901.97;;;12.97
79053;BMP280;68451;49.510;6.026;2023-11-19T09:49:52;97897.28;;;12.82
79053;BMP280;68451;49.510;6.026;2023-11-19T09:52:23;97881.56;;;12.66
79053;BMP280;68451;49.510;6.026;2023-11-19T09:54:51;97939.47;;;12.97
79053;BMP280;68451;49.510;6.026;2023-11-19T09:57:18;97772.84;;;12.01
79053;BMP280;68451;49.510;6.026;2023-11-19T09:59:46;97901.91;;;12.92
79053;BMP280;68451;49.510;6.026;2023-11-19T10:02:14;97920.13;;;13.15
79053;BMP280;68451;49.510;6.026;2023-11-19T10:04:42;97810.13;;;12.53
79053;BMP280;68451;49.510;6.026;2023-11-19T10:07:11;97867.59;;;12.93
79053;BMP280;68451;49.510;6.026;2023-11-19T10:09:38;97887.66;;;13.16
79053;BMP280;68451;49.510;6.026;2023-11-19T10:12:05;97839.88;;;12.97
79053;BMP280;68451;49.510;6.026;2023-11-19T10:14:34;97853.06;;;13.02
79053;BMP280;68451;49.510;6.026;2023-11-19T10:17:04;97859.66;;;13.22
79053;BMP280;68451;49.510;6.026;2023-11-19T10:19:31;97883.47;;;13.37
79053;BMP280;68451;49.510;6.026;2023-11-19T10:22:03;97876.78;;;13.46
79053;BMP280;68451;49.510;6.026;2023-11-19T10:24:34;97904.63;;;13.69
79053;BMP280;68451;49.510;6.026;2023-11-19T10:27:07;97877.16;;;13.55
79053;BMP280;68451;49.510;6.026;2023-11-19T10:29:38;97904.22;;;13.77
79053;BMP280;68451;49.510;6.026;2023-11-19T10:32:05;97789.78;;;12.94
79053;BMP280;68451;49.510;6.026;2023-11-19T10:34:52;97882.16;;;13.56
79053;BMP280;68451;49.510;6.026;2023-11-19T10:37:29;97843.78;;;13.28
79053;BMP280;68451;49.510;6.026;2023-11-19T10:40:02;97804.22;;;12.96
79053;BMP280;68451;49.510;6.026;2023-11-19T10:42:31;97839.00;;;13.09
79053;BMP280;68451;49.510;6.026;2023-11-19T10:44:58;97882.97;;;13.40
79053;BMP280;68451;49.510;6.026;2023-11-19T10:47:25;97873.47;;;13.17
79053;BMP280;68451;49.510;6.026;2023-11-19T10:49:55;97879.91;;;13.26
79053;BMP280;68451;49.510;6.026;2023-11-19T10:52:23;97874.28;;;13.34
79053;BMP280;68451;49.510;6.026;2023-11-19T10:54:51;97739.91;;;12.67
79053;BMP280;68451;49.510;6.026;2023-11-19T10:57:21;97871.69;;;13.56
79053;BMP280;68451;49.510;6.026;2023-11-19T11:00:00;97838.09;;;13.36
79053;BMP280;68451;49.510;6.026;2023-11-19T11:02:30;97865.22;;;13.64
79053;BMP280;68451;49.510;6.026;2023-11-19T11:05:01;97860.63;;;13.54
79053;BMP280;68451;49.510;6.026;2023-11-19T11:07:31;97856.59;;;13.47
79053;BMP280;68451;49.510;6.026;2023-11-19T11:10:07;97839.69;;;13.37
79053;BMP280;68451;49.510;6.026;2023-11-19T11:12:36;97851.09;;;13.48
79053;BMP280;68451;49.510;6.026;2023-11-19T11:15:05;97872.72;;;13.55
79053;BMP280;68451;49.510;6.026;2023-11-19T11:17:33;97848.38;;;13.38
79053;BMP280;68451;49.510;6.026;2023-11-19T11:20:01;97872.66;;;13.50
79053;BMP280;68451;49.510;6.026;2023-11-19T11:22:38;97859.66;;;13.38
79053;BMP280;68451;49.510;6.026;2023-11-19T11:25:52;97870.75;;;13.45
79053;BMP280;68451;49.510;6.026;2023-11-19T11:37:55;97875.53;;;13.32
79053;BMP280;68451;49.510;6.026;2023-11-19T11:39:50;97781.53;;;12.69
79053;BMP280;68451;49.510;6.026;2023-11-19T11:50:14;97859.16;;;13.41
79053;BMP280;68451;49.510;6.026;2023-11-19T11:55:37;97828.34;;;13.54
79053;BMP280;68451;49.510;6.026;2023-11-19T11:58:08;97836.72;;;13.72
79053;BMP280;68451;49.510;6.026;2023-11-19T12:00:40;97840.50;;;13.81
79053;BMP280;68451;49.510;6.026;2023-11-19T12:03:08;97820.00;;;13.78
79053;BMP280;68451;49.510;6.026;2023-11-19T12:05:42;97843.72;;;13.88
79053;BMP280;68451;49.510;6.026;2023-11-19T12:08:14;97790.75;;;13.65
79053;BMP280;68451;49.510;6.026;2023-11-19T12:13:16;97825.63;;;13.87
79053;BMP280;68451;49.510;6.026;2023-11-19T12:18:32;97739.31;;;13.42
79053;BMP280;68451;49.510;6.026;2023-11-19T12:21:00;97819.94;;;13.95
79053;BMP280;68451;49.510;6.026;2023-11-19T12:23:29;97803.31;;;13.89
79053;BMP280;68451;49.510;6.026;2023-11-19T12:25:57;97811.19;;;13.89
79053;BMP280;68451;49.510;6.026;2023-11-19T12:28:24;97791.88;;;13.74
79053;BMP280;68451;49.510;6.026;2023-11-19T12:30:53;97728.91;;;13.25
79053;BMP280;68451;49.510;6.026;2023-11-19T12:33:20;97811.22;;;13.68
79053;BMP280;68451;49.510;6.026;2023-11-19T12:35:48;97814.41;;;13.70
79053;BMP280;68451;49.510;6.026;2023-11-19T12:38:22;97823.25;;;13.64
79053;BMP280;68451;49.510;6.026;2023-11-19T12:41:08;97815.69;;;13.45
79053;BMP280;68451;49.510;6.026;2023-11-19T12:43:38;97787.69;;;13.29
79053;BMP280;68451;49.510;6.026;2023-11-19T12:46:21;97711.22;;;12.77
79053;BMP280;68451;49.510;6.026;2023-11-19T12:48:49;97812.69;;;13.37
79053;BMP280;68451;49.510;6.026;2023-11-19T12:51:16;97638.69;;;12.39
79053;BMP280;68451;49.510;6.026;2023-11-19T12:53:48;97804.31;;;13.40
79053;BMP280;68451;49.510;6.026;2023-11-19T12:56:16;97813.06;;;13.45
79053;BMP280;68451;49.510;6.026;2023-11-19T12:58:43;97815.13;;;13.43
79053;BMP280;68451;49.510;6.026;2023-11-19T13:01:15;97793.97;;;13.28
79053;BMP280;68451;49.510;6.026;2023-11-19T13:03:43;97796.34;;;13.30
79053;BMP280;68451;49.510;6.026;2023-11-19T13:06:12;97818.09;;;13.30
79053;BMP280;68451;49.510;6.026;2023-11-19T13:08:50;97793.81;;;13.18
79053;BMP280;68451;49.510;6.026;2023-11-19T13:11:33;97809.75;;;13.33
79053;BMP280;68451;49.510;6.026;2023-11-19T13:14:04;97796.75;;;13.22
79053;BMP280;68451;49.510;6.026;2023-11-19T13:16:32;97787.69;;;13.13
79053;BMP280;68451;49.510;6.026;2023-11-19T13:18:59;97794.13;;;13.22
79053;BMP280;68451;49.510;6.026;2023-11-19T13:21:29;97812.84;;;13.30
79053;BMP280;68451;49.510;6.026;2023-11-19T13:23:56;97806.56;;;13.31
79053;BMP280;68451;49.510;6.026;2023-11-19T13:26:23;97784.19;;;13.24
79053;BMP280;68451;49.510;6.026;2023-11-19T13:28:50;97794.09;;;13.38
79053;BMP280;68451;49.510;6.026;2023-11-19T13:31:18;97783.28;;;13.35
79053;BMP280;68451;49.510;6.026;2023-11-19T13:33:45;97794.16;;;13.43
79053;BMP280;68451;49.510;6.026;2023-11-19T13:36:12;97784.22;;;13.45
79053;BMP280;68451;49.510;6.026;2023-11-19T13:38:43;97810.88;;;13.59
79053;BMP280;68451;49.510;6.026;2023-11-19T13:41:11;97790.75;;;13.43
79053;BMP280;68451;49.510;6.026;2023-11-19T13:43:39;97810.72;;;13.49
79053;BMP280;68451;49.510;6.026;2023-11-19T13:46:06;97718.97;;;12.89
79053;BMP280;68451;49.510;6.026;2023-11-19T13:48:37;97808.09;;;13.49
79053;BMP280;68451;49.510;6.026;2023-11-19T13:51:04;97799.72;;;13.47
79053;BMP280;68451;49.510;6.026;2023-11-19T13:53:32;97804.31;;;13.40
79053;BMP280;68451;49.510;6.026;2023-11-19T13:56:17;97803.78;;;13.38
79053;BMP280;68451;49.510;6.026;2023-11-19T13:58:44;97777.59;;;13.21
79053;BMP280;68451;49.510;6.026;2023-11-19T14:01:11;97795.47;;;13.24
79053;BMP280;68451;49.510;6.026;2023-11-19T14:03:40;97783.41;;;13.23
79053;BMP280;68451;49.510;6.026;2023-11-19T14:06:09;97798.41;;;13.28
79053;BMP280;68451;49.510;6.026;2023-11-19T14:08:36;97793.28;;;13.16
79053;BMP280;68451;49.510;6.026;2023-11-19T14:11:03;97791.69;;;13.15
79053;BMP280;68451;49.510;6.026;2023-11-19T14:13:30;97792.81;;;13.02
79053;BMP280;68451;49.510;6.026;2023-11-19T14:15:57;97789.53;;;12.95
79053;BMP280;68451;49.510;6.026;2023-11-19T14:18:24;97796.28;;;12.91
79053;BMP280;68451;49.510;6.026;2023-11-19T14:20:51;97784.41;;;12.84
79053;BMP280;68451;49.510;6.026;2023-11-19T14:23:18;97717.84;;;12.30
79053;BMP280;68451;49.510;6.026;2023-11-19T14:25:45;97782.03;;;12.66
79053;BMP280;68451;49.510;6.026;2023-11-19T14:28:12;97756.72;;;12.54
79053;BMP280;68451;49.510;6.026;2023-11-19T14:30:39;97780.75;;;12.68
79053;BMP280;68451;49.510;6.026;2023-11-19T14:33:08;97793.22;;;12.61
79053;BMP280;68451;49.510;6.026;2023-11-19T14:35:36;97819.09;;;12.57
79053;BMP280;68451;49.510;6.026;2023-11-19T14:38:03;97793.31;;;12.49
79053;BMP280;68451;49.510;6.026;2023-11-19T14:40:32;97790.91;;;12.48
79053;BMP280;68451;49.510;6.026;2023-11-19T14:43:01;97800.91;;;12.51
79053;BMP280;68451;49.510;6.026;2023-11-19T14:45:29;97803.63;;;12.39